createdAt,value
2022-10-24T00:01:19.901Z,90.62473984103534
2022-10-24T00:04:16.409Z,89.77856995786262
2022-10-24T00:07:16.284Z,89.05935754073117
2022-10-24T00:11:20.676Z,89.26346798713297
2022-10-24T00:14:16.592Z,89.6508186191047
2022-10-24T00:17:18.262Z,89.3402542585398
2022-10-24T00:21:15.571Z,88.58211569260536
2022-10-24T00:24:18.996Z,89.52157020661572
2022-10-24T00:27:15.927Z,90.2433694732817
2022-10-24T00:31:18.728Z,89.46290525508721
2022-10-24T00:34:17.536Z,89.62058567175144
2022-10-24T00:37:17.149Z,89.09487865993526
2022-10-24T00:41:19.142Z,88.60948641765447
2022-10-24T00:44:21.772Z,88.30425582856888
2022-10-24T00:47:20.888Z,88.53410441233648
2022-10-24T00:51:22.973Z,88.42494320113606
2022-10-24T00:54:16.257Z,88.42206610399181
2022-10-24T00:57:23.894Z,87.97132422385512
2022-10-24T01:01:16.913Z,88.03935412885792
2022-10-24T01:04:17.869Z,89.3533476375013
2022-10-24T01:07:33.041Z,90.13545869119622
2022-10-24T01:11:32.259Z,91.11307203031842
2022-10-24T01:14:27.394Z,91.27091802612622
2022-10-24T01:17:22.198Z,91.36981827170486
2022-10-24T01:21:42.790Z,90.1610135464974
2022-10-24T01:24:53.329Z,89.85601773747894
2022-10-24T01:27:52.931Z,89.499465627164
2022-10-24T01:31:26.506Z,89.04532564822291
2022-10-24T01:41:20.896Z,90.20797360424224
2022-10-24T01:44:21.953Z,90.91342166057798
2022-10-24T01:47:21.233Z,91.99803835592857
2022-10-24T01:51:20.029Z,92.89649023373195
2022-10-24T01:54:16.808Z,93.43817423181889
2022-10-24T01:57:16.232Z,92.51576847774936
2022-10-24T02:01:38.310Z,92.25698064400254
2022-10-24T02:04:40.259Z,92.86190296339986
2022-10-24T02:07:38.566Z,92.98595648235545
2022-10-24T02:11:34.231Z,91.81087246035156
2022-10-24T02:14:35.107Z,91.97912215402773
2022-10-24T02:31:23.953Z,91.75366650544069
2022-10-24T02:34:18.118Z,92.1559737750466
2022-10-24T02:37:18.144Z,92.33934899694958
2022-10-24T02:41:21.394Z,93.501266760514
2022-10-24T02:44:18.751Z,94.61587526173575
2022-10-24T02:47:20.233Z,95.12074911575381
2022-10-24T02:51:19.827Z,95.79187873891209
2022-10-24T02:54:17.276Z,96.3993438381705
2022-10-24T02:57:17.171Z,95.83436925632105
2022-10-24T03:01:19.171Z,94.75115200337004
2022-10-24T03:04:19.266Z,94.33903755146777
2022-10-24T03:07:19.269Z,94.42898299088073
2022-10-24T03:11:16.066Z,95.25615658328417
2022-10-24T03:14:16.267Z,96.30470296013576
2022-10-24T03:17:17.349Z,96.16867450792672
2022-10-24T03:21:22.301Z,95.39086220597598
2022-10-24T03:24:31.231Z,95.42772061106818
2022-10-24T03:27:22.739Z,95.90578628442726
2022-10-24T03:41:16.557Z,95.7637859627257
2022-10-24T03:44:16.120Z,95.45723690823907
2022-10-24T03:47:16.350Z,94.97385402116356
2022-10-24T03:51:16.797Z,94.81774829649785
2022-10-24T03:54:17.365Z,95.59267150007945
2022-10-24T03:57:16.668Z,95.73995547774228
2022-10-24T04:01:18.333Z,96.20458653499549
2022-10-24T04:04:16.648Z,96.96567266518953
2022-10-24T04:07:16.682Z,96.0007421569998
2022-10-24T04:11:16.759Z,95.3916251645294
2022-10-24T04:14:16.325Z,95.41144181064793
2022-10-24T04:17:16.615Z,95.46916756317006
2022-10-24T04:21:20.821Z,95.24412386346458
2022-10-24T04:24:16.744Z,96.41751584101591
2022-10-24T04:27:16.722Z,96.7978177545492
2022-10-24T04:31:23.423Z,96.55116883803713
2022-10-24T04:34:17.028Z,96.26198244515055
2022-10-24T04:37:16.659Z,95.82344132358163
2022-10-24T04:41:17.157Z,96.21417499579057
2022-10-24T04:44:16.918Z,98.15802039710454
2022-10-24T04:47:17.015Z,97.82526258932731
2022-10-24T04:51:20.025Z,97.12889941364578
2022-10-24T04:54:17.367Z,96.97967981098786
2022-10-24T04:57:16.237Z,97.92990628294292
2022-10-24T05:01:16.174Z,97.61688915595929
2022-10-24T05:04:16.490Z,97.90525066304522
2022-10-24T05:07:16.593Z,98.11074945948022
2022-10-24T05:11:16.473Z,98.7904000847142
2022-10-24T05:14:17.065Z,98.78524081443706
2022-10-24T05:17:17.088Z,98.8165664342581
2022-10-24T05:21:16.024Z,98.03060568120735
2022-10-24T05:24:16.541Z,97.70592720815212
2022-10-24T05:31:17.131Z,96.6813033994791
2022-10-24T05:34:16.259Z,96.26184991061353
2022-10-24T05:37:16.793Z,96.12559649045203
2022-10-24T05:41:16.037Z,95.80726544525449
2022-10-24T05:44:17.263Z,96.19280811107117
2022-10-24T05:47:16.579Z,96.15195451879208
2022-10-24T05:51:16.352Z,96.166123707332
2022-10-24T05:54:16.738Z,96.24180731170144
2022-10-24T05:57:16.800Z,96.3970224290408
2022-10-24T06:01:17.891Z,96.24406949292698
2022-10-24T06:04:18.129Z,97.23177380613409
2022-10-24T06:07:18.190Z,97.39778310972432
2022-10-24T06:11:36.532Z,97.26905440423107
2022-10-24T06:14:38.265Z,97.91459645294181
2022-10-24T06:17:37.708Z,97.41087653157375
2022-10-24T06:21:17.076Z,97.08941544818163
2022-10-24T06:24:16.717Z,97.57630960246402
2022-10-24T06:27:16.587Z,98.3646987297831
2022-10-24T06:31:16.832Z,98.47627885691985
2022-10-24T06:34:16.398Z,98.90764678619573
2022-10-24T06:37:16.355Z,98.88501010851151
2022-10-24T06:41:17.077Z,99.05393403168192
2022-10-24T06:44:16.230Z,99.69223974401037
2022-10-24T06:47:31.845Z,100
2022-10-24T06:51:16.473Z,100
2022-10-24T06:54:16.678Z,100
2022-10-24T06:57:18.073Z,100
2022-10-24T07:01:19.449Z,100
2022-10-24T07:04:17.017Z,100
2022-10-24T07:07:19.714Z,100
2022-10-24T07:11:16.947Z,100
2022-10-24T07:14:16.758Z,100
2022-10-24T07:17:18.257Z,100
2022-10-24T07:21:19.106Z,100
2022-10-24T07:24:16.355Z,100
2022-10-24T07:27:16.385Z,100
2022-10-24T07:31:21.566Z,100
2022-10-24T07:34:17.781Z,100
2022-10-24T07:37:18.775Z,100
2022-10-24T07:41:16.701Z,100
2022-10-24T07:44:17.417Z,100
2022-10-24T07:47:16.755Z,100
2022-10-24T07:51:16.497Z,100
2022-10-24T07:54:16.456Z,100
2022-10-24T07:57:16.459Z,100
2022-10-24T08:01:18.402Z,100
2022-10-24T08:04:16.314Z,100
2022-10-24T08:07:16.603Z,100
2022-10-24T08:11:18.645Z,100
2022-10-24T08:14:23.298Z,100
2022-10-24T08:17:17.161Z,100
2022-10-24T08:21:18.643Z,100
2022-10-24T08:24:16.984Z,100
2022-10-24T08:27:17.062Z,100
2022-10-24T08:31:40.537Z,100
2022-10-24T08:34:16.980Z,100
2022-10-24T08:37:16.133Z,100
2022-10-24T08:41:24.256Z,100
2022-10-24T08:44:24.366Z,100
2022-10-24T08:47:25.467Z,100
2022-10-24T08:51:28.215Z,98.4157275672144
2022-10-24T08:54:20.173Z,96.27596063868359
2022-10-24T08:57:21.770Z,96.0214804431028
2022-10-24T09:01:27.420Z,91.83161948853707
2022-10-24T09:04:21.056Z,90.9461069236083
2022-10-24T09:07:20.534Z,89.73653742884012
2022-10-24T09:11:25.373Z,90.39333467644133
2022-10-24T09:14:19.243Z,88.21326489009245
2022-10-24T09:21:16.772Z,85.2194111955813
2022-10-24T09:24:28.488Z,84.78133570738262
2022-10-24T09:31:18.233Z,82.54837447534075
2022-10-24T09:34:17.305Z,81.35525037262198
2022-10-24T09:37:43.936Z,81.29623468792713
2022-10-24T09:41:21.372Z,75.39995771943123
2022-10-24T09:44:31.188Z,75.55486338431054
2022-10-24T09:47:26.878Z,75.26409606353886
2022-10-24T09:51:21.600Z,75.19323069869782
2022-10-24T09:54:27.423Z,72.37708520917026
2022-10-24T09:57:16.926Z,73.41745441387464
2022-10-24T10:01:20.210Z,71.23067764076423
2022-10-24T10:04:18.582Z,69.97380124145191
2022-10-24T10:07:24.697Z,67.67570312544655
2022-10-24T10:11:37.713Z,68.19714881569914
2022-10-24T10:14:25.023Z,62.773055762067
2022-10-24T10:17:22.897Z,62.32542209760382
2022-10-24T10:21:18.029Z,62.73259625069151
2022-10-24T10:24:24.359Z,60.24414538612054
2022-10-24T10:27:31.483Z,62.845212460776764
2022-10-24T10:31:24.986Z,61.33577950581221
2022-10-24T10:34:22.468Z,57.73988332519709
2022-10-24T10:37:25.577Z,58.135687616466186
2022-10-24T10:41:31.713Z,57.48351799046348
2022-10-24T10:44:34.087Z,57.33640626312135
2022-10-24T10:47:31.872Z,56.45605734151878
2022-10-24T10:51:24.640Z,56.9079831345742
2022-10-24T10:54:34.875Z,56.85622456458715
2022-10-24T10:57:21.104Z,57.20665995560475
2022-10-24T11:01:25.245Z,55.19533059288154
2022-10-24T11:04:27.098Z,54.093876056699024
2022-10-24T11:07:24.143Z,54.62287320259859
2022-10-24T11:11:19.185Z,52.49808268796653
2022-10-24T11:14:28.822Z,52.44617077848764
2022-10-24T11:17:20.900Z,51.84573169317327
2022-10-24T11:21:20.572Z,50.58676593813403
2022-10-24T11:24:21.099Z,50.616950910678256
2022-10-24T11:27:19.429Z,51.501654630182855
2022-10-24T11:31:20.448Z,53.61124039100415
2022-10-24T11:34:51.658Z,53.06925776849166
2022-10-24T11:37:23.605Z,54.953704768677916
2022-10-24T11:41:27.621Z,53.3506738556865
2022-10-24T11:44:29.599Z,54.67050056697069
2022-10-24T11:47:40.194Z,52.34595143886358
2022-10-24T11:51:21.053Z,53.036978693037696
2022-10-24T11:54:53.521Z,50.26571581310959
2022-10-24T11:57:22.479Z,51.445034198158446
2022-10-24T12:01:46.446Z,50.4176635601179
2022-10-24T12:04:32.045Z,50.32156471591111
2022-10-24T12:07:49.429Z,46.6090287734096
2022-10-24T12:11:35.349Z,45.436761165536
2022-10-24T12:14:42.249Z,46.804307916207456
2022-10-24T12:17:31.862Z,48.74970389736554
2022-10-24T12:21:24.816Z,46.27457957618063
2022-10-24T12:24:26.605Z,46.34576481325181
2022-10-24T12:27:27.275Z,45.88496187007458
2022-10-24T12:31:26.206Z,45.1723302613899
2022-10-24T12:41:40.024Z,46.00427355523442
2022-10-24T12:44:49.956Z,47.14393792578167
2022-10-24T12:47:34.698Z,45.133499554999304
2022-10-24T12:51:33.327Z,42.95138436062804
2022-10-24T12:54:36.815Z,42.06217239928973
2022-10-24T12:57:28.024Z,42.085529587146496
2022-10-24T13:01:27.600Z,41.79294270046634
2022-10-24T13:04:32.532Z,42.1849196092029
2022-10-24T13:07:40.330Z,42.108731378085956
2022-10-24T13:11:32.217Z,43.03261872411011
2022-10-24T13:14:50.060Z,43.2489467414496
2022-10-24T13:17:31.492Z,42.50609471379597
2022-10-24T13:21:25.762Z,43.51734391698124
2022-10-24T13:24:34.472Z,43.2773838637391
2022-10-24T13:27:28.699Z,45.00109111364134
2022-10-24T13:31:53.813Z,47.705194739616736
2022-10-24T13:34:24.649Z,47.48913501743719
2022-10-24T13:37:23.599Z,45.55511615465441
2022-10-24T13:41:26.104Z,46.56468699840896
2022-10-24T13:44:25.916Z,45.43139874969555
2022-10-24T13:47:21.871Z,45.751412619549065
2022-10-24T13:51:19.945Z,46.58536201739923
2022-10-24T13:54:20.750Z,47.109681304324994
2022-10-24T13:57:29.188Z,47.7338690781427
2022-10-24T14:01:20.119Z,48.782304950781
2022-10-24T14:04:17.399Z,49.393729049951425
2022-10-24T14:07:22.140Z,49.20120125502321
2022-10-24T14:11:21.226Z,48.97797793751189
2022-10-24T14:14:26.518Z,47.701786081222906
2022-10-24T14:17:23.208Z,49.36205229351329
2022-10-24T14:21:19.385Z,49.15162436903173
2022-10-24T14:24:19.944Z,50.20566101820084
2022-10-24T14:27:18.649Z,49.97220772827369
2022-10-24T14:31:21.433Z,48.764336466299156
2022-10-24T14:34:20.972Z,48.56001004319036
2022-10-24T14:37:23.963Z,48.90959263171898
2022-10-24T14:41:17.808Z,49.24570128095602
2022-10-24T14:44:17.813Z,49.2964396028924
2022-10-24T14:47:22.310Z,49.39493828374731
2022-10-24T14:51:23.517Z,50.05653551918987
2022-10-24T14:54:20.975Z,49.286838881630935
2022-10-24T14:57:21.265Z,49.54222445237751
2022-10-24T15:01:18.320Z,50.5162943653061
2022-10-24T15:04:28.134Z,50.75427665197597
2022-10-24T15:07:28.717Z,50.19597137080569
2022-10-24T15:11:19.764Z,51.22659526987099
2022-10-24T15:14:37.813Z,51.22577718207857
2022-10-24T15:17:29.949Z,51.654922341955256
2022-10-24T15:21:19.232Z,52.16886808190447
2022-10-24T15:24:21.632Z,52.77138731800793
2022-10-24T15:27:26.386Z,53.89456293813834
2022-10-24T15:31:18.836Z,54.07794534533786
2022-10-24T15:34:18.454Z,54.46393818202871
2022-10-24T15:37:18.578Z,55.15626315652879
2022-10-24T15:41:16.384Z,55.61662851882223
2022-10-24T15:44:20.364Z,57.010377844352696
2022-10-24T15:47:17.338Z,57.05435731178469
2022-10-24T15:51:18.395Z,57.639407800156036
2022-10-24T15:54:19.492Z,57.995999444887225
2022-10-24T15:57:18.684Z,58.09551768895051
2022-10-24T16:01:22.977Z,57.75684234248827
2022-10-24T16:04:18.104Z,57.67810010374969
2022-10-24T16:07:16.741Z,57.41013182060476
2022-10-24T16:11:17.133Z,57.89165105208969
2022-10-24T16:14:18.736Z,58.66807285408817
2022-10-24T16:17:16.566Z,59.4325989800608
2022-10-24T16:21:17.821Z,60.4041477445586
2022-10-24T16:24:18.447Z,61.748043895098576
2022-10-24T16:27:16.198Z,62.072156290504445
2022-10-24T16:31:18.800Z,62.518817874127535
2022-10-24T16:34:17.588Z,63.07822633879068
2022-10-24T16:37:18.779Z,63.98213293557277
2022-10-24T16:41:17.494Z,64.31625317376107
2022-10-24T16:44:16.415Z,64.61632027014898
2022-10-24T16:47:18.187Z,64.81704919322256
2022-10-24T16:51:19.187Z,65.3767205281625
2022-10-24T16:54:16.236Z,65.45737578152225
2022-10-24T16:57:16.419Z,65.2509799665084
2022-10-24T17:01:16.984Z,65.0070582416468
2022-10-24T17:04:17.857Z,65.35998838977154
2022-10-24T17:07:16.783Z,65.45759829886534
2022-10-24T17:11:43.193Z,65.6417308115934
2022-10-24T17:14:17.370Z,66.26183207131706
2022-10-24T17:17:16.435Z,66.65917647328412
2022-10-24T17:21:17.730Z,66.6818253610981
2022-10-24T17:24:20.567Z,67.48159450319092
2022-10-24T17:27:17.772Z,67.75096794805951
2022-10-24T17:31:16.505Z,67.56135032015949
2022-10-24T17:34:17.136Z,67.92851631082355
2022-10-24T17:37:23.929Z,68.31196191299813
2022-10-24T17:41:20.534Z,67.86752699572669
2022-10-24T17:44:17.551Z,68.6048241264838
2022-10-24T17:47:16.627Z,68.36773214819537
2022-10-24T17:51:22.409Z,68.6018685091251
2022-10-24T17:54:17.432Z,69.1958685795222
2022-10-24T17:57:16.882Z,70.07542141705005
2022-10-24T18:01:19.207Z,69.8764271045925
2022-10-24T18:04:18.886Z,70.69947359021461
2022-10-24T18:07:19.046Z,70.69788804620784
2022-10-24T18:11:15.683Z,71.28243553063169
2022-10-24T18:14:16.053Z,71.65328628234381
2022-10-24T18:17:16.210Z,72.67391519517865
2022-10-24T18:24:16.477Z,72.6387527263419
2022-10-24T18:27:16.765Z,73.17143779658261
2022-10-24T18:31:18.518Z,73.13533676083009
2022-10-24T18:34:17.905Z,73.45760065241282
2022-10-24T18:37:17.049Z,73.94205249645593
2022-10-24T18:41:30.537Z,73.27888140943381
2022-10-24T18:44:23.839Z,74.00579066586086
2022-10-24T18:47:21.901Z,75.13920838832469
2022-10-24T18:51:29.041Z,75.17692680884828
2022-10-24T18:57:21.932Z,76.41371839939148
2022-10-24T19:01:25.730Z,76.13273786771802
2022-10-24T19:04:19.765Z,75.63894833788004
2022-10-24T19:07:16.173Z,76.02240627957401
2022-10-24T19:11:16.943Z,77.42940056676724
2022-10-24T19:14:18.935Z,77.1918781278889
2022-10-24T19:17:17.021Z,76.86192325019867
2022-10-24T19:21:16.223Z,76.99643052005544
2022-10-24T19:24:17.439Z,77.40209067712577
2022-10-24T19:27:16.566Z,78.186859344139
2022-10-24T19:31:18.291Z,78.29145389667812
2022-10-24T19:34:18.605Z,78.68848461490123
2022-10-24T19:37:19.618Z,78.98897402081275
2022-10-24T19:41:16.514Z,79.05895185593246
2022-10-24T19:44:18.650Z,79.54556897750209
2022-10-24T19:47:16.584Z,79.73880285686165
2022-10-24T19:51:18.153Z,80.77529247035021
2022-10-24T19:54:16.564Z,80.79187611995908
2022-10-24T19:57:16.904Z,80.81358269943813
2022-10-24T20:01:18.579Z,80.53951916590192
2022-10-24T20:04:17.642Z,80.67228018671622
2022-10-24T20:07:17.646Z,81.21066567460505
2022-10-24T20:11:16.604Z,80.7375835191165
2022-10-24T20:14:17.555Z,81.34685429369564
2022-10-24T20:17:16.104Z,81.44688401545943
2022-10-24T20:21:18.671Z,81.8714898511848
2022-10-24T20:24:17.140Z,81.94156071742432
2022-10-24T20:27:20.978Z,83.01260128856512
2022-10-24T20:41:16.083Z,83.9560686198555
2022-10-24T20:44:17.939Z,84.85140919346652
2022-10-24T20:47:16.321Z,84.79608988345034
2022-10-24T20:51:17.576Z,84.75373222125081
2022-10-24T20:54:17.870Z,84.68595603885035
2022-10-24T20:57:16.016Z,84.46040134618126
2022-10-24T21:01:17.970Z,85.21705018717242
2022-10-24T21:04:20.715Z,86.0872886556499
2022-10-24T21:07:16.457Z,85.63058425458607
2022-10-24T21:11:18.346Z,85.45395191040605
2022-10-24T21:14:18.280Z,84.68220073001659
2022-10-24T21:17:16.118Z,84.36796126651042
2022-10-24T21:21:17.164Z,84.89604122362239
2022-10-24T21:24:18.996Z,85.22979237247822
2022-10-24T21:27:16.888Z,85.96617187542986
2022-10-24T21:31:18.516Z,85.48099281173337
2022-10-24T21:34:17.585Z,87.00109892343582
2022-10-24T21:37:17.338Z,87.73373304127614
2022-10-24T21:41:17.751Z,88.15213950135288
2022-10-24T21:44:16.838Z,87.84830978948041
2022-10-24T21:47:17.018Z,88.61732318861584
2022-10-24T21:51:18.794Z,88.88689886434987
2022-10-24T21:54:18.570Z,88.65362749547722
2022-10-24T21:57:16.816Z,89.17682818155602
2022-10-24T22:01:19.410Z,89.09565289852814
2022-10-24T22:04:17.995Z,89.27650326506455
2022-10-24T22:07:16.727Z,88.78722826384873
2022-10-24T22:11:17.545Z,87.9253322477112
2022-10-24T22:14:17.631Z,87.7591302339583
2022-10-24T22:17:15.774Z,87.82541122880752
2022-10-24T22:21:26.876Z,87.54958659946598
2022-10-24T22:24:18.818Z,87.40582166534794
2022-10-24T22:27:17.435Z,87.14431521146905
2022-10-24T22:31:16.691Z,87.56179608618969
2022-10-24T22:34:19.882Z,88.09680803549136
2022-10-24T22:37:26.789Z,88.18945427542805
2022-10-24T22:41:16.408Z,89.11696092583496
2022-10-24T22:44:19.600Z,88.96767641023256
2022-10-24T22:47:37.245Z,89.61787975646101
2022-10-24T22:51:19.978Z,88.90268496694362
2022-10-24T22:54:21.230Z,89.20021863371753
2022-10-24T22:57:16.926Z,89.56689860240876
2022-10-24T23:01:37.682Z,88.17934845778872
2022-10-24T23:04:27.749Z,88.36419013979399
2022-10-24T23:07:26.527Z,89.03303271947208
2022-10-24T23:11:16.713Z,88.99005370983342
2022-10-24T23:17:22.225Z,89.78994749976526
2022-10-24T23:21:25.382Z,89.30385108966424
2022-10-24T23:24:17.397Z,89.50344374476772
2022-10-24T23:27:30.839Z,89.59652253662279
2022-10-24T23:31:16.483Z,89.8152360399783
2022-10-24T23:34:17.245Z,90.84497954260532
2022-10-24T23:37:25.909Z,91.46551022317925
2022-10-24T23:41:16.573Z,90.9833362208322
2022-10-24T23:44:16.898Z,91.11923509235828
2022-10-24T23:47:36.063Z,91.54024585173329
2022-10-24T23:51:22.982Z,91.95607651271709
2022-10-24T23:54:23.683Z,93.51770646904767
2022-10-24T23:57:18.568Z,93.72008925494893
